sensor_id;sensor_type;location;lat;lon;timestamp;pressure;altitude;pressure_sealevel;temperature;humidity
54308;BME280;40208;39.778;2.710;2022-09-09T00:00:11;101324.59;;;24.84;100.00
54308;BME280;40208;39.778;2.710;2022-09-09T00:03:18;101328.31;;;24.83;100.00
54308;BME280;40208;39.778;2.710;2022-09-09T00:06:11;101327.19;;;24.76;100.00
54308;BME280;40208;39.778;2.710;2022-09-09T00:09:12;101325.50;;;24.75;100.00
54308;BME280;40208;39.778;2.710;2022-09-09T00:15:03;101325.34;;;24.76;100.00
54308;BME280;40208;39.778;2.710;2022-09-09T00:17:56;101325.50;;;24.75;100.00
54308;BME280;40208;39.778;2.710;2022-09-09T00:21:06;101323.06;;;24.72;100.00
54308;BME280;40208;39.778;2.710;2022-09-09T00:23:54;101328.09;;;24.67;100.00
54308;BME280;40208;39.778;2.710;2022-09-09T00:26:47;101319.81;;;24.68;100.00
54308;BME280;40208;39.778;2.710;2022-09-09T00:29:34;101323.69;;;24.66;100.00
54308;BME280;40208;39.778;2.710;2022-09-09T00:32:22;101323.41;;;24.59;100.00
54308;BME280;40208;39.778;2.710;2022-09-09T00:38:00;101215.31;;;23.88;100.00
54308;BME280;40208;39.778;2.710;2022-09-09T00:44:03;101323.84;;;24.45;100.00
54308;BME280;40208;39.778;2.710;2022-09-09T00:50:01;101314.28;;;24.41;100.00
54308;BME280;40208;39.778;2.710;2022-09-09T00:52:59;101312.84;;;24.37;100.00
54308;BME280;40208;39.778;2.710;2022-09-09T00:55:55;101313.00;;;24.35;100.00
54308;BME280;40208;39.778;2.710;2022-09-09T00:58:55;101308.72;;;24.32;100.00
54308;BME280;40208;39.778;2.710;2022-09-09T01:01:42;101306.16;;;24.31;100.00
54308;BME280;40208;39.778;2.710;2022-09-09T01:04:33;101180.97;;;23.49;100.00
54308;BME280;40208;39.778;2.710;2022-09-09T01:07:20;101320.03;;;24.28;100.00
54308;BME280;40208;39.778;2.710;2022-09-09T01:10:21;101303.59;;;24.20;100.00
54308;BME280;40208;39.778;2.710;2022-09-09T01:13:15;101312.16;;;24.25;100.00
54308;BME280;40208;39.778;2.710;2022-09-09T01:16:06;101304.75;;;24.17;100.00
54308;BME280;40208;39.778;2.710;2022-09-09T01:18:54;101309.03;;;24.20;100.00
54308;BME280;40208;39.778;2.710;2022-09-09T01:22:01;101311.31;;;24.15;100.00
54308;BME280;40208;39.778;2.710;2022-09-09T01:27:48;101309.03;;;24.10;100.00
54308;BME280;40208;39.778;2.710;2022-09-09T01:30:38;101310.91;;;24.09;100.00
54308;BME280;40208;39.778;2.710;2022-09-09T01:33:24;101307.59;;;24.06;100.00
54308;BME280;40208;39.778;2.710;2022-09-09T01:38:56;101300.50;;;23.95;100.00
54308;BME280;40208;39.778;2.710;2022-09-09T01:41:41;101310.91;;;24.00;100.00
54308;BME280;40208;39.778;2.710;2022-09-09T01:44:27;101313.63;;;24.00;100.00
54308;BME280;40208;39.778;2.710;2022-09-09T01:47:12;101308.50;;;23.97;100.00
54308;BME280;40208;39.778;2.710;2022-09-09T01:49:59;101307.06;;;23.92;100.00
54308;BME280;40208;39.778;2.710;2022-09-09T01:52:48;101308.94;;;23.92;100.00
54308;BME280;40208;39.778;2.710;2022-09-09T01:55:53;101305.63;;;23.88;100.00
54308;BME280;40208;39.778;2.710;2022-09-09T02:04:57;101313.47;;;23.82;100.00
54308;BME280;40208;39.778;2.710;2022-09-09T02:07:48;101309.19;;;23.79;100.00
54308;BME280;40208;39.778;2.710;2022-09-09T02:13:32;101302.34;;;23.75;100.00
54308;BME280;40208;39.778;2.710;2022-09-09T02:19:24;101308.44;;;23.67;100.00
54308;BME280;40208;39.778;2.710;2022-09-09T02:22:11;101263.66;;;23.34;100.00
54308;BME280;40208;39.778;2.710;2022-09-09T02:24:57;101301.75;;;23.62;100.00
54308;BME280;40208;39.778;2.710;2022-09-09T02:27:45;101300.03;;;23.61;100.00
54308;BME280;40208;39.778;2.710;2022-09-09T02:30:32;101290.91;;;23.52;100.00
54308;BME280;40208;39.778;2.710;2022-09-09T02:33:19;101306.03;;;23.55;100.00
54308;BME280;40208;39.778;2.710;2022-09-09T02:36:06;101305.31;;;23.53;100.00
54308;BME280;40208;39.778;2.710;2022-09-09T02:38:52;101293.88;;;23.49;100.00
54308;BME280;40208;39.778;2.710;2022-09-09T02:41:41;101175.16;;;22.75;100.00
54308;BME280;40208;39.778;2.710;2022-09-09T02:44:26;101298.75;;;23.45;100.00
54308;BME280;40208;39.778;2.710;2022-09-09T02:50:19;101290.19;;;23.40;100.00
54308;BME280;40208;39.778;2.710;2022-09-09T02:53:16;101301.31;;;23.37;100.00
54308;BME280;40208;39.778;2.710;2022-09-09T02:56:05;101300.13;;;23.30;100.00
54308;BME280;40208;39.778;2.710;2022-09-09T02:58:53;101301.84;;;23.31;100.00
54308;BME280;40208;39.778;2.710;2022-09-09T03:01:38;101295.72;;;23.29;100.00
54308;BME280;40208;39.778;2.710;2022-09-09T03:04:24;101299.56;;;23.26;100.00
54308;BME280;40208;39.778;2.710;2022-09-09T03:07:12;101305.09;;;23.25;100.00
54308;BME280;40208;39.778;2.710;2022-09-09T03:09:56;101302.28;;;23.26;100.00
54308;BME280;40208;39.778;2.710;2022-09-09T03:12:43;101296.41;;;23.21;100.00
54308;BME280;40208;39.778;2.710;2022-09-09T03:15:28;101302.56;;;23.23;100.00
54308;BME280;40208;39.778;2.710;2022-09-09T03:18:14;101298.41;;;23.19;100.00
54308;BME280;40208;39.778;2.710;2022-09-09T03:20:59;101294.94;;;23.07;100.00
54308;BME280;40208;39.778;2.710;2022-09-09T03:23:44;101301.94;;;23.10;100.00
54308;BME280;40208;39.778;2.710;2022-09-09T03:26:29;101296.09;;;23.05;100.00
54308;BME280;40208;39.778;2.710;2022-09-09T03:29:14;101307.03;;;23.03;100.00
54308;BME280;40208;39.778;2.710;2022-09-09T03:31:59;101303.78;;;23.00;100.00
54308;BME280;40208;39.778;2.710;2022-09-09T03:34:45;101304.75;;;22.99;100.00
54308;BME280;40208;39.778;2.710;2022-09-09T03:37:31;101299.47;;;22.97;100.00
54308;BME280;40208;39.778;2.710;2022-09-09T03:40:16;101308.56;;;22.96;100.00
54308;BME280;40208;39.778;2.710;2022-09-09T03:43:02;101309.69;;;22.94;100.00
54308;BME280;40208;39.778;2.710;2022-09-09T03:45:47;101306.59;;;22.98;100.00
54308;BME280;40208;39.778;2.710;2022-09-09T03:48:32;101304.00;;;22.97;100.00
54308;BME280;40208;39.778;2.710;2022-09-09T03:51:18;101302.28;;;22.96;100.00
54308;BME280;40208;39.778;2.710;2022-09-09T03:54:02;101303.28;;;22.95;100.00
54308;BME280;40208;39.778;2.710;2022-09-09T03:56:49;101308.09;;;22.91;100.00
54308;BME280;40208;39.778;2.710;2022-09-09T03:59:34;101301.00;;;22.90;100.00
54308;BME280;40208;39.778;2.710;2022-09-09T04:02:19;101300.41;;;22.86;100.00
54308;BME280;40208;39.778;2.710;2022-09-09T04:05:04;101299.94;;;22.81;100.00
54308;BME280;40208;39.778;2.710;2022-09-09T04:07:51;101301.81;;;22.81;100.00
54308;BME280;40208;39.778;2.710;2022-09-09T04:10:36;101301.94;;;22.79;100.00
54308;BME280;40208;39.778;2.710;2022-09-09T04:13:21;101301.22;;;22.77;100.00
54308;BME280;40208;39.778;2.710;2022-09-09T04:16:07;101297.53;;;22.78;100.00
54308;BME280;40208;39.778;2.710;2022-09-09T04:18:52;101304.78;;;22.78;100.00
54308;BME280;40208;39.778;2.710;2022-09-09T04:21:38;101297.66;;;22.77;100.00
54308;BME280;40208;39.778;2.710;2022-09-09T04:24:24;101298.78;;;22.74;100.00
54308;BME280;40208;39.778;2.710;2022-09-09T04:27:08;101303.19;;;22.75;100.00
54308;BME280;40208;39.778;2.710;2022-09-09T04:29:53;101300.50;;;22.75;100.00
54308;BME280;40208;39.778;2.710;2022-09-09T04:32:39;101292.13;;;22.78;100.00
54308;BME280;40208;39.778;2.710;2022-09-09T04:35:24;101296.53;;;22.79;100.00
54308;BME280;40208;39.778;2.710;2022-09-09T04:38:09;101288.53;;;22.78;100.00
54308;BME280;40208;39.778;2.710;2022-09-09T04:40:54;101290.78;;;22.73;100.00
54308;BME280;40208;39.778;2.710;2022-09-09T04:43:39;101296.09;;;22.74;100.00
54308;BME280;40208;39.778;2.710;2022-09-09T04:46:24;101291.34;;;22.67;100.00
54308;BME280;40208;39.778;2.710;2022-09-09T04:49:08;101302.75;;;22.70;100.00
54308;BME280;40208;39.778;2.710;2022-09-09T04:51:53;101309.00;;;22.71;100.00
54308;BME280;40208;39.778;2.710;2022-09-09T04:54:38;101309.28;;;22.68;100.00
54308;BME280;40208;39.778;2.710;2022-09-09T04:57:23;101305.00;;;22.65;100.00
54308;BME280;40208;39.778;2.710;2022-09-09T05:00:09;101310.69;;;22.62;100.00
54308;BME280;40208;39.778;2.710;2022-09-09T05:02:54;101306.81;;;22.55;100.00
54308;BME280;40208;39.778;2.710;2022-09-09T05:05:39;101296.91;;;22.44;100.00
54308;BME280;40208;39.778;2.710;2022-09-09T05:08:24;101318.03;;;22.50;100.00
54308;BME280;40208;39.778;2.710;2022-09-09T05:11:16;101314.47;;;22.50;100.00
54308;BME280;40208;39.778;2.710;2022-09-09T05:14:01;101313.47;;;22.51;100.00
54308;BME280;40208;39.778;2.710;2022-09-09T05:16:45;101301.75;;;22.40;100.00
54308;BME280;40208;39.778;2.710;2022-09-09T05:19:32;101290.00;;;22.30;100.00
54308;BME280;40208;39.778;2.710;2022-09-09T05:22:20;101319.41;;;22.44;100.00
54308;BME280;40208;39.778;2.710;2022-09-09T05:25:06;101247.66;;;21.98;100.00
54308;BME280;40208;39.778;2.710;2022-09-09T05:27:52;101314.09;;;22.33;100.00
54308;BME280;40208;39.778;2.710;2022-09-09T05:30:38;101316.25;;;22.39;100.00
54308;BME280;40208;39.778;2.710;2022-09-09T05:33:23;101204.81;;;21.73;100.00
54308;BME280;40208;39.778;2.710;2022-09-09T05:36:11;101305.81;;;22.35;100.00
54308;BME280;40208;39.778;2.710;2022-09-09T05:38:59;101321.66;;;22.39;100.00
54308;BME280;40208;39.778;2.710;2022-09-09T05:41:45;101318.22;;;22.37;100.00
54308;BME280;40208;39.778;2.710;2022-09-09T05:44:30;101330.38;;;22.43;100.00
54308;BME280;40208;39.778;2.710;2022-09-09T05:47:15;101330.22;;;22.44;100.00
54308;BME280;40208;39.778;2.710;2022-09-09T05:50:00;101325.81;;;22.43;100.00
54308;BME280;40208;39.778;2.710;2022-09-09T05:52:45;101328.53;;;22.43;100.00
54308;BME280;40208;39.778;2.710;2022-09-09T05:55:30;101338.28;;;22.56;100.00
54308;BME280;40208;39.778;2.710;2022-09-09T05:58:15;101345.41;;;22.57;100.00
54308;BME280;40208;39.778;2.710;2022-09-09T06:01:04;101347.25;;;22.56;100.00
54308;BME280;40208;39.778;2.710;2022-09-09T06:03:50;101348.81;;;22.59;100.00
54308;BME280;40208;39.778;2.710;2022-09-09T06:06:37;101251.94;;;22.01;100.00
54308;BME280;40208;39.778;2.710;2022-09-09T06:09:24;101329.44;;;22.54;100.00
54308;BME280;40208;39.778;2.710;2022-09-09T06:12:08;101348.31;;;22.65;100.00
54308;BME280;40208;39.778;2.710;2022-09-09T06:14:53;101360.59;;;22.69;100.00
54308;BME280;40208;39.778;2.710;2022-09-09T06:17:38;101354.59;;;22.75;100.00
54308;BME280;40208;39.778;2.710;2022-09-09T06:20:23;101351.66;;;22.78;100.00
54308;BME280;40208;39.778;2.710;2022-09-09T06:23:09;101363.78;;;22.84;100.00
54308;BME280;40208;39.778;2.710;2022-09-09T06:26:24;101367.78;;;22.90;100.00
54308;BME280;40208;39.778;2.710;2022-09-09T06:29:10;101359.50;;;22.81;100.00
54308;BME280;40208;39.778;2.710;2022-09-09T06:31:54;101365.19;;;22.78;100.00
54308;BME280;40208;39.778;2.710;2022-09-09T06:34:39;101367.22;;;22.86;100.00
54308;BME280;40208;39.778;2.710;2022-09-09T06:37:24;101363.91;;;22.82;100.00
54308;BME280;40208;39.778;2.710;2022-09-09T06:40:11;101369.47;;;22.81;100.00
54308;BME280;40208;39.778;2.710;2022-09-09T06:42:59;101364.38;;;22.88;100.00
54308;BME280;40208;39.778;2.710;2022-09-09T06:46:14;101362.13;;;22.93;100.00
54308;BME280;40208;39.778;2.710;2022-09-09T06:48:57;101365.03;;;23.01;100.00
54308;BME280;40208;39.778;2.710;2022-09-09T06:51:44;101240.75;;;22.27;100.00
54308;BME280;40208;39.778;2.710;2022-09-09T06:54:28;101366.06;;;23.10;100.00
54308;BME280;40208;39.778;2.710;2022-09-09T06:57:13;101297.94;;;22.74;100.00
54308;BME280;40208;39.778;2.710;2022-09-09T06:59:58;101353.38;;;23.10;100.00
54308;BME280;40208;39.778;2.710;2022-09-09T07:02:43;101374.66;;;23.24;100.00
54308;BME280;40208;39.778;2.710;2022-09-09T07:05:28;101363.97;;;23.23;100.00
54308;BME280;40208;39.778;2.710;2022-09-09T07:08:13;101365.09;;;23.20;100.00
54308;BME280;40208;39.778;2.710;2022-09-09T07:11:03;101370.53;;;23.30;100.00
54308;BME280;40208;39.778;2.710;2022-09-09T07:13:51;101368.16;;;23.37;100.00
54308;BME280;40208;39.778;2.710;2022-09-09T07:16:35;101372.00;;;23.44;100.00
54308;BME280;40208;39.778;2.710;2022-09-09T07:19:21;101364.91;;;23.43;100.00
54308;BME280;40208;39.778;2.710;2022-09-09T07:22:06;101368.47;;;23.53;100.00
54308;BME280;40208;39.778;2.710;2022-09-09T07:24:51;101359.63;;;23.61;100.00
54308;BME280;40208;39.778;2.710;2022-09-09T07:27:35;101355.25;;;23.69;100.00
54308;BME280;40208;39.778;2.710;2022-09-09T07:30:20;101339.56;;;23.63;100.00
54308;BME280;40208;39.778;2.710;2022-09-09T07:33:05;101309.88;;;23.52;100.00
54308;BME280;40208;39.778;2.710;2022-09-09T07:35:51;101374.84;;;24.02;100.00
54308;BME280;40208;39.778;2.710;2022-09-09T07:38:44;101363.88;;;24.13;100.00
54308;BME280;40208;39.778;2.710;2022-09-09T07:41:39;101362.84;;;24.24;100.00
54308;BME280;40208;39.778;2.710;2022-09-09T07:44:24;101377.09;;;24.46;100.00
54308;BME280;40208;39.778;2.710;2022-09-09T07:47:09;101382.41;;;24.57;100.00
54308;BME280;40208;39.778;2.710;2022-09-09T07:49:54;101376.63;;;24.70;100.00
54308;BME280;40208;39.778;2.710;2022-09-09T07:52:39;101371.78;;;24.73;100.00
54308;BME280;40208;39.778;2.710;2022-09-09T07:55:24;101390.19;;;24.89;100.00
54308;BME280;40208;39.778;2.710;2022-09-09T07:58:09;101342.06;;;24.72;100.00
54308;BME280;40208;39.778;2.710;2022-09-09T08:00:54;101398.25;;;25.09;100.00
54308;BME280;40208;39.778;2.710;2022-09-09T08:03:39;101379.38;;;25.07;100.00
54308;BME280;40208;39.778;2.710;2022-09-09T08:06:25;101312.88;;;24.84;100.00
54308;BME280;40208;39.778;2.710;2022-09-09T08:09:10;101387.13;;;25.39;100.00
54308;BME280;40208;39.778;2.710;2022-09-09T08:11:56;101401.25;;;25.43;100.00
54308;BME280;40208;39.778;2.710;2022-09-09T08:14:41;101397.88;;;25.59;100.00
54308;BME280;40208;39.778;2.710;2022-09-09T08:17:26;101397.97;;;25.67;100.00
54308;BME280;40208;39.778;2.710;2022-09-09T08:20:10;101393.16;;;25.79;100.00
54308;BME280;40208;39.778;2.710;2022-09-09T08:22:55;101387.72;;;25.79;100.00
54308;BME280;40208;39.778;2.710;2022-09-09T08:25:40;101399.38;;;25.99;100.00
54308;BME280;40208;39.778;2.710;2022-09-09T08:28:25;101398.72;;;26.05;100.00
54308;BME280;40208;39.778;2.710;2022-09-09T08:31:23;101402.00;;;26.09;100.00
54308;BME280;40208;39.778;2.710;2022-09-09T08:34:09;101350.94;;;25.85;100.00
54308;BME280;40208;39.778;2.710;2022-09-09T08:36:54;101411.88;;;26.28;100.00
54308;BME280;40208;39.778;2.710;2022-09-09T08:39:39;101404.66;;;26.36;100.00
54308;BME280;40208;39.778;2.710;2022-09-09T08:42:38;101418.53;;;26.51;100.00
54308;BME280;40208;39.778;2.710;2022-09-09T08:45:56;101417.94;;;26.57;100.00
54308;BME280;40208;39.778;2.710;2022-09-09T08:48:57;101423.06;;;26.60;100.00
54308;BME280;40208;39.778;2.710;2022-09-09T08:51:43;101406.75;;;26.60;100.00
54308;BME280;40208;39.778;2.710;2022-09-09T08:54:32;101417.41;;;26.80;100.00
54308;BME280;40208;39.778;2.710;2022-09-09T08:57:28;101416.41;;;26.81;100.00
54308;BME280;40208;39.778;2.710;2022-09-09T09:00:16;101398.72;;;26.85;100.00
54308;BME280;40208;39.778;2.710;2022-09-09T09:09:40;101408.06;;;27.08;100.00
54308;BME280;40208;39.778;2.710;2022-09-09T09:12:35;101414.34;;;27.09;100.00
54308;BME280;40208;39.778;2.710;2022-09-09T09:15:28;101425.13;;;27.19;100.00
54308;BME280;40208;39.778;2.710;2022-09-09T09:18:15;101411.75;;;27.25;100.00
54308;BME280;40208;39.778;2.710;2022-09-09T09:21:07;101417.75;;;27.37;100.00
54308;BME280;40208;39.778;2.710;2022-09-09T09:24:00;101409.59;;;27.37;100.00
54308;BME280;40208;39.778;2.710;2022-09-09T09:26:45;101405.53;;;27.41;100.00
54308;BME280;40208;39.778;2.710;2022-09-09T09:29:30;101411.69;;;27.52;100.00
54308;BME280;40208;39.778;2.710;2022-09-09T09:32:18;101353.16;;;27.30;100.00
54308;BME280;40208;39.778;2.710;2022-09-09T09:35:06;101414.66;;;27.75;100.00
54308;BME280;40208;39.778;2.710;2022-09-09T09:37:54;101412.44;;;27.78;100.00
54308;BME280;40208;39.778;2.710;2022-09-09T09:40:48;101422.38;;;27.87;100.00
54308;BME280;40208;39.778;2.710;2022-09-09T09:43:36;101426.84;;;27.97;100.00
54308;BME280;40208;39.778;2.710;2022-09-09T09:46:24;101418.00;;;28.03;100.00
54308;BME280;40208;39.778;2.710;2022-09-09T09:49:10;101425.66;;;28.16;100.00
54308;BME280;40208;39.778;2.710;2022-09-09T09:52:00;101423.78;;;28.16;100.00
54308;BME280;40208;39.778;2.710;2022-09-09T09:54:46;101416.97;;;28.20;100.00
54308;BME280;40208;39.778;2.710;2022-09-09T09:57:31;101363.72;;;27.83;100.00
54308;BME280;40208;39.778;2.710;2022-09-09T10:00:20;101423.13;;;28.22;100.00
54308;BME280;40208;39.778;2.710;2022-09-09T10:03:22;101361.69;;;27.94;100.00
54308;BME280;40208;39.778;2.710;2022-09-09T10:06:07;101406.59;;;28.24;100.00
54308;BME280;40208;39.778;2.710;2022-09-09T10:08:52;101420.91;;;28.34;100.00
54308;BME280;40208;39.778;2.710;2022-09-09T10:18:17;101409.66;;;28.37;100.00
54308;BME280;40208;39.778;2.710;2022-09-09T10:30:32;101392.94;;;28.32;100.00
54308;BME280;40208;39.778;2.710;2022-09-09T10:36:49;101441.25;;;28.64;100.00
54308;BME280;40208;39.778;2.710;2022-09-09T10:39:38;101428.97;;;28.60;100.00
54308;BME280;40208;39.778;2.710;2022-09-09T10:42:30;101423.84;;;28.57;100.00
54308;BME280;40208;39.778;2.710;2022-09-09T10:45:23;101441.59;;;28.69;100.00
54308;BME280;40208;39.778;2.710;2022-09-09T10:54:37;101428.41;;;28.73;100.00
54308;BME280;40208;39.778;2.710;2022-09-09T10:57:39;101424.50;;;28.75;100.00
54308;BME280;40208;39.778;2.710;2022-09-09T11:00:36;101425.84;;;28.80;100.00
54308;BME280;40208;39.778;2.710;2022-09-09T11:03:25;101334.75;;;28.31;100.00
54308;BME280;40208;39.778;2.710;2022-09-09T11:06:19;101432.34;;;28.95;100.00
54308;BME280;40208;39.778;2.710;2022-09-09T11:09:05;101442.72;;;29.00;100.00
54308;BME280;40208;39.778;2.710;2022-09-09T11:11:55;101428.88;;;29.01;100.00
54308;BME280;40208;39.778;2.710;2022-09-09T11:14:51;101434.00;;;29.04;100.00
54308;BME280;40208;39.778;2.710;2022-09-09T11:17:46;101377.53;;;28.88;100.00
54308;BME280;40208;39.778;2.710;2022-09-09T11:20:33;101420.81;;;29.24;100.00
54308;BME280;40208;39.778;2.710;2022-09-09T11:23:27;101425.44;;;29.24;100.00
54308;BME280;40208;39.778;2.710;2022-09-09T11:26:26;101388.41;;;29.05;100.00
54308;BME280;40208;39.778;2.710;2022-09-09T11:38:46;101429.22;;;29.54;100.00
54308;BME280;40208;39.778;2.710;2022-09-09T11:41:36;101346.22;;;29.07;100.00
54308;BME280;40208;39.778;2.710;2022-09-09T11:44:29;101411.97;;;29.53;100.00
54308;BME280;40208;39.778;2.710;2022-09-09T11:53:19;101435.34;;;29.64;100.00
54308;BME280;40208;39.778;2.710;2022-09-09T11:56:12;101424.22;;;29.74;100.00
54308;BME280;40208;39.778;2.710;2022-09-09T11:59:05;101435.84;;;29.76;100.00
54308;BME280;40208;39.778;2.710;2022-09-09T12:07:56;101437.91;;;29.97;100.00
54308;BME280;40208;39.778;2.710;2022-09-09T12:10:54;101430.38;;;29.99;100.00
54308;BME280;40208;39.778;2.710;2022-09-09T12:13:52;101425.28;;;29.96;100.00
54308;BME280;40208;39.778;2.710;2022-09-09T12:16:37;101434.63;;;30.01;100.00
54308;BME280;40208;39.778;2.710;2022-09-09T12:19:22;101430.75;;;29.96;100.00
54308;BME280;40208;39.778;2.710;2022-09-09T12:28:05;101425.38;;;29.79;100.00
54308;BME280;40208;39.778;2.710;2022-09-09T12:31:17;101425.00;;;29.83;100.00
54308;BME280;40208;39.778;2.710;2022-09-09T12:40:24;101420.31;;;29.99;100.00
54308;BME280;40208;39.778;2.710;2022-09-09T12:43:20;101421.69;;;29.95;100.00
54308;BME280;40208;39.778;2.710;2022-09-09T12:46:18;101413.13;;;29.98;100.00
54308;BME280;40208;39.778;2.710;2022-09-09T12:49:37;101409.66;;;30.05;100.00
54308;BME280;40208;39.778;2.710;2022-09-09T12:52:27;101407.94;;;30.04;100.00
54308;BME280;40208;39.778;2.710;2022-09-09T12:55:23;101401.25;;;30.06;100.00
54308;BME280;40208;39.778;2.710;2022-09-09T12:58:13;101404.41;;;30.18;100.00
54308;BME280;40208;39.778;2.710;2022-09-09T13:01:03;101403.38;;;30.19;100.00
54308;BME280;40208;39.778;2.710;2022-09-09T13:03:49;101402.72;;;30.17;100.00
54308;BME280;40208;39.778;2.710;2022-09-09T13:06:34;101403.84;;;30.22;100.00
54308;BME280;40208;39.778;2.710;2022-09-09T13:09:19;101404.84;;;30.30;100.00
54308;BME280;40208;39.778;2.710;2022-09-09T13:12:05;101313.34;;;29.78;100.00
54308;BME280;40208;39.778;2.710;2022-09-09T13:14:56;101377.78;;;30.12;100.00
54308;BME280;40208;39.778;2.710;2022-09-09T13:17:41;101316.03;;;29.86;100.00
54308;BME280;40208;39.778;2.710;2022-09-09T13:20:26;101409.06;;;30.40;100.00
54308;BME280;40208;39.778;2.710;2022-09-09T13:23:12;101404.13;;;30.36;100.00
54308;BME280;40208;39.778;2.710;2022-09-09T13:26:01;101404.31;;;30.34;100.00
54308;BME280;40208;39.778;2.710;2022-09-09T13:28:46;101408.78;;;30.35;100.00
54308;BME280;40208;39.778;2.710;2022-09-09T13:31:35;101358.66;;;30.04;100.00
54308;BME280;40208;39.778;2.710;2022-09-09T13:34:38;101398.53;;;30.29;100.00
54308;BME280;40208;39.778;2.710;2022-09-09T13:37:31;101405.72;;;30.30;100.00
54308;BME280;40208;39.778;2.710;2022-09-09T13:40:20;101406.38;;;30.32;100.00
54308;BME280;40208;39.778;2.710;2022-09-09T13:43:17;101332.28;;;29.88;100.00
54308;BME280;40208;39.778;2.710;2022-09-09T13:46:20;101396.28;;;30.33;100.00
54308;BME280;40208;39.778;2.710;2022-09-09T13:52:12;101296.59;;;29.81;100.00
54308;BME280;40208;39.778;2.710;2022-09-09T13:55:01;101385.81;;;30.36;100.00
54308;BME280;40208;39.778;2.710;2022-09-09T14:00:41;101369.38;;;30.36;100.00
54308;BME280;40208;39.778;2.710;2022-09-09T14:03:25;101360.03;;;30.31;100.00
54308;BME280;40208;39.778;2.710;2022-09-09T14:06:10;101274.03;;;29.79;100.00
54308;BME280;40208;39.778;2.710;2022-09-09T14:08:55;101378.16;;;30.47;100.00
54308;BME280;40208;39.778;2.710;2022-09-09T14:11:41;101371.28;;;30.51;100.00
54308;BME280;40208;39.778;2.710;2022-09-09T14:14:26;101371.00;;;30.46;100.00
54308;BME280;40208;39.778;2.710;2022-09-09T14:17:10;101380.84;;;30.55;100.00
54308;BME280;40208;39.778;2.710;2022-09-09T14:19:56;101331.53;;;30.17;100.00
54308;BME280;40208;39.778;2.710;2022-09-09T14:22:41;101382.53;;;30.56;100.00
54308;BME280;40208;39.778;2.710;2022-09-09T14:25:26;101376.38;;;30.54;100.00
54308;BME280;40208;39.778;2.710;2022-09-09T14:28:13;101383.41;;;30.56;100.00
54308;BME280;40208;39.778;2.710;2022-09-09T14:31:01;101391.97;;;30.53;100.00
54308;BME280;40208;39.778;2.710;2022-09-09T14:33:46;101383.31;;;30.50;100.00
54308;BME280;40208;39.778;2.710;2022-09-09T14:36:31;101388.09;;;30.48;100.00
54308;BME280;40208;39.778;2.710;2022-09-09T14:39:16;101384.47;;;30.32;100.00
54308;BME280;40208;39.778;2.710;2022-09-09T14:42:01;101387.44;;;30.46;100.00
54308;BME280;40208;39.778;2.710;2022-09-09T14:44:46;101388.28;;;30.46;100.00
54308;BME280;40208;39.778;2.710;2022-09-09T14:47:32;101378.72;;;30.42;100.00
54308;BME280;40208;39.778;2.710;2022-09-09T14:50:18;101330.56;;;30.10;100.00
54308;BME280;40208;39.778;2.710;2022-09-09T14:53:03;101379.78;;;30.41;100.00
54308;BME280;40208;39.778;2.710;2022-09-09T14:55:48;101378.09;;;30.40;100.00
54308;BME280;40208;39.778;2.710;2022-09-09T14:58:33;101371.38;;;30.42;100.00
54308;BME280;40208;39.778;2.710;2022-09-09T15:01:19;101319.53;;;30.18;100.00
54308;BME280;40208;39.778;2.710;2022-09-09T15:04:05;101374.41;;;30.48;100.00
54308;BME280;40208;39.778;2.710;2022-09-09T15:06:50;101365.16;;;30.49;100.00
54308;BME280;40208;39.778;2.710;2022-09-09T15:09:37;101370.16;;;30.45;100.00
54308;BME280;40208;39.778;2.710;2022-09-09T15:12:22;101373.44;;;30.40;100.00
54308;BME280;40208;39.778;2.710;2022-09-09T15:15:08;101330.84;;;30.15;100.00
54308;BME280;40208;39.778;2.710;2022-09-09T15:17:53;101356.22;;;30.32;100.00
54308;BME280;40208;39.778;2.710;2022-09-09T15:20:38;101362.88;;;30.37;100.00
54308;BME280;40208;39.778;2.710;2022-09-09T15:23:23;101359.38;;;30.43;100.00
54308;BME280;40208;39.778;2.710;2022-09-09T15:26:09;101354.94;;;30.42;100.00
54308;BME280;40208;39.778;2.710;2022-09-09T15:28:54;101316.09;;;30.01;100.00
54308;BME280;40208;39.778;2.710;2022-09-09T15:31:39;101349.06;;;30.31;100.00
54308;BME280;40208;39.778;2.710;2022-09-09T15:34:24;101355.56;;;30.30;100.00
54308;BME280;40208;39.778;2.710;2022-09-09T15:37:11;101359.19;;;30.22;100.00
54308;BME280;40208;39.778;2.710;2022-09-09T15:39:58;101308.81;;;29.93;100.00
54308;BME280;40208;39.778;2.710;2022-09-09T15:42:44;101339.16;;;30.07;100.00
54308;BME280;40208;39.778;2.710;2022-09-09T15:45:29;101264.56;;;29.58;100.00
54308;BME280;40208;39.778;2.710;2022-09-09T15:48:15;101349.34;;;30.13;100.00
54308;BME280;40208;39.778;2.710;2022-09-09T15:51:04;101351.06;;;30.14;100.00
54308;BME280;40208;39.778;2.710;2022-09-09T15:53:56;101352.47;;;30.10;100.00
54308;BME280;40208;39.778;2.710;2022-09-09T15:56:42;101326.28;;;29.92;100.00
54308;BME280;40208;39.778;2.710;2022-09-09T15:59:28;101362.81;;;29.99;100.00
54308;BME280;40208;39.778;2.710;2022-09-09T16:02:13;101356.72;;;29.89;100.00
54308;BME280;40208;39.778;2.710;2022-09-09T16:04:58;101357.03;;;29.94;100.00
54308;BME280;40208;39.778;2.710;2022-09-09T16:07:43;101224.94;;;29.08;100.00
54308;BME280;40208;39.778;2.710;2022-09-09T16:10:29;101312.25;;;29.64;100.00
54308;BME280;40208;39.778;2.710;2022-09-09T16:13:15;101354.66;;;29.91;100.00